Time;durP1;ratioP1;P1;durP2;ratioP2;P2;SDS_P1;SDS_P2;PMS_P1;PMS_P2;Temp;Humidity;BMP_temperature;BMP_pressure;BME280_temperature;BME280_humidity;BME280_pressure;Samples;Min_cycle;Max_cycle;Signal;HPM_P1;HPM_P2
2022/11/28 01:06:23;;;;;;;4.57;1.83;;;5.70;99.90;;;;;;5085553;28;21146;-90
2022/11/28 01:08:55;;;;;;;7.43;1.67;;;5.60;99.90;;;;;;5078617;28;20575;-92
2022/11/28 01:11:26;;;;;;;7.27;1.20;;;5.60;99.90;;;;;;5059432;28;20212;-90
2022/11/28 01:13:58;;;;;;;6.23;1.33;;;5.50;99.90;;;;;;5063941;28;20270;-90
2022/11/28 01:16:30;;;;;;;3.10;1.03;;;5.50;99.90;;;;;;5066526;28;20232;-90
2022/11/28 01:19:02;;;;;;;5.87;1.37;;;5.40;99.90;;;;;;5080050;28;20238;-92
2022/11/28 01:21:36;;;;;;;3.73;1.60;;;5.30;99.90;;;;;;5057936;28;20280;-93
2022/11/28 01:24:09;;;;;;;4.57;1.27;;;5.30;99.90;;;;;;5074595;28;20788;-86
2022/11/28 01:26:42;;;;;;;4.53;1.13;;;5.20;99.90;;;;;;5067529;28;20218;-93
2022/11/28 01:29:15;;;;;;;7.60;1.07;;;5.10;99.90;;;;;;5068871;28;20655;-93
2022/11/28 01:31:47;;;;;;;5.73;1.47;;;5.10;99.90;;;;;;5068632;28;20247;-93
2022/11/28 01:34:19;;;;;;;5.40;1.30;;;5.10;99.90;;;;;;5073137;28;20333;-92
2022/11/28 01:36:53;;;;;;;4.60;1.43;;;5.00;99.90;;;;;;5068669;28;20204;-95
2022/11/28 01:39:24;;;;;;;5.07;1.03;;;5.00;99.90;;;;;;5053841;28;20212;-94
2022/11/28 01:41:56;;;;;;;1.20;0.80;;;5.00;99.90;;;;;;5072177;28;20675;-93
2022/11/28 01:45:04;;;;;;;6.90;1.30;;;5.00;99.90;;;;;;5073648;28;20219;-94
2022/11/28 01:47:37;;;;;;;5.70;1.10;;;5.00;99.90;;;;;;5069810;28;20631;-94
2022/11/28 01:50:10;;;;;;;4.77;0.90;;;5.00;99.90;;;;;;5069775;28;20243;-94
2022/11/28 01:52:52;;;;;;;3.77;0.97;;;4.90;99.90;;;;;;5069258;28;20203;-93
2022/11/28 01:55:27;;;;;;;6.77;1.30;;;4.90;99.90;;;;;;5072280;28;20231;-93
2022/11/28 01:57:59;;;;;;;5.07;1.40;;;4.90;99.90;;;;;;5080720;28;20203;-94
2022/11/28 02:00:33;;;;;;;2.57;1.13;;;4.90;99.90;;;;;;5058657;28;20230;-92
2022/11/28 02:03:09;;;;;;;6.80;1.13;;;4.90;99.90;;;;;;5073282;28;20202;-93
2022/11/28 02:05:42;;;;;;;2.17;1.00;;;4.90;99.90;;;;;;5067470;28;20570;-95
2022/11/28 02:08:15;;;;;;;4.07;1.33;;;4.80;99.90;;;;;;5050923;28;20228;-94
2022/11/28 02:11:02;;;;;;;2.73;0.93;;;4.80;99.90;;;;;;5039681;28;20221;-94
2022/11/28 02:13:46;;;;;;;8.43;1.53;;;4.70;99.90;;;;;;5073846;28;20290;-94
2022/11/28 02:16:33;;;;;;;4.87;1.30;;;4.70;99.90;;;;;;5057462;28;20236;-93
2022/11/28 02:19:36;;;;;;;4.27;1.20;;;4.70;99.90;;;;;;5053380;28;20212;-93
2022/11/28 02:22:14;;;;;;;5.70;1.20;;;4.60;99.90;;;;;;5053989;28;20196;-92
2022/11/28 02:25:16;;;;;;;6.47;1.20;;;4.60;99.90;;;;;;5058196;28;20208;-94
2022/11/28 02:28:22;;;;;;;2.77;1.20;;;4.60;99.90;;;;;;5056380;28;20207;-93
2022/11/28 02:31:04;;;;;;;3.47;1.27;;;4.60;99.90;;;;;;5043846;28;20337;-94
2022/11/28 02:33:51;;;;;;;5.80;0.93;;;4.60;99.90;;;;;;5064802;28;20216;-94
2022/11/28 02:36:29;;;;;;;4.57;1.30;;;4.50;99.90;;;;;;5056033;28;20228;-93
2022/11/28 02:39:09;;;;;;;3.80;1.13;;;4.50;99.90;;;;;;5055320;28;20231;-92
2022/11/28 02:41:45;;;;;;;2.37;1.30;;;4.40;99.90;;;;;;5060795;28;20680;-94
2022/11/28 02:44:19;;;;;;;5.80;1.37;;;4.40;99.90;;;;;;5044617;28;20221;-93
2022/11/28 02:46:59;;;;;;;8.27;1.20;;;4.40;99.90;;;;;;5061397;28;20294;-94
2022/11/28 02:49:41;;;;;;;4.57;1.60;;;4.50;99.90;;;;;;5068004;28;20265;-96
2022/11/28 02:52:17;;;;;;;6.40;1.40;;;4.40;99.90;;;;;;5074779;28;20201;-96
2022/11/28 02:54:56;;;;;;;2.70;1.43;;;4.40;99.90;;;;;;5069019;28;20275;-96
2022/11/28 02:57:37;;;;;;;6.03;1.40;;;4.40;99.90;;;;;;5084419;28;20235;-95
2022/11/28 03:00:36;;;;;;;3.10;1.40;;;4.40;99.90;;;;;;5066963;28;20185;-91
2022/11/28 03:03:47;;;;;;;3.47;1.17;;;4.40;99.90;;;;;;5065957;28;20246;-93
2022/11/28 03:06:36;;;;;;;5.83;1.43;;;4.40;99.90;;;;;;5034884;28;20247;-93
2022/11/28 03:09:39;;;;;;;4.27;1.20;;;4.40;99.90;;;;;;5055898;28;20284;-96
2022/11/28 03:12:22;;;;;;;5.63;1.10;;;4.40;99.90;;;;;;5046588;28;20201;-93
2022/11/28 03:14:56;;;;;;;7.80;1.30;;;4.40;99.90;;;;;;5063560;28;20220;-93
2022/11/28 03:17:39;;;;;;;4.10;1.30;;;4.40;99.90;;;;;;5051584;28;20230;-94
2022/11/28 03:20:23;;;;;;;4.73;1.20;;;4.50;99.90;;;;;;5055833;28;20212;-94
2022/11/28 03:23:14;;;;;;;4.60;1.13;;;4.50;99.90;;;;;;5054771;28;20211;-92
2022/11/28 03:25:57;;;;;;;3.33;1.00;;;4.50;99.90;;;;;;5059051;28;20291;-94
2022/11/28 03:28:35;;;;;;;7.23;1.30;;;4.50;99.90;;;;;;5057887;28;20273;-95
2022/11/28 03:31:17;;;;;;;3.93;1.33;;;4.50;99.90;;;;;;5053806;28;20586;-94
2022/11/28 03:33:56;;;;;;;8.83;1.20;;;4.50;99.90;;;;;;5057402;28;20213;-96
2022/11/28 03:36:31;;;;;;;5.23;1.10;;;4.50;99.90;;;;;;5047506;28;20232;-94
2022/11/28 03:39:12;;;;;;;4.53;1.20;;;4.50;99.90;;;;;;5055845;28;20269;-95
2022/11/28 03:41:49;;;;;;;3.97;0.90;;;4.40;99.90;;;;;;5053541;28;20204;-95
2022/11/28 03:44:26;;;;;;;2.37;1.10;;;4.40;99.90;;;;;;5039830;28;20200;-95
2022/11/28 03:47:01;;;;;;;2.43;0.77;;;4.40;99.90;;;;;;5055973;28;20278;-96
2022/11/28 03:49:39;;;;;;;3.00;1.30;;;4.40;99.90;;;;;;5067425;28;20211;-96
2022/11/28 03:52:17;;;;;;;2.23;0.90;;;4.40;99.90;;;;;;5053141;28;20576;-96
2022/11/28 03:54:56;;;;;;;4.37;1.93;;;4.40;99.90;;;;;;5059411;28;20208;-95
2022/11/28 03:57:34;;;;;;;5.53;2.20;;;4.30;99.90;;;;;;5054579;28;20238;-94
2022/11/28 04:00:10;;;;;;;5.53;1.13;;;4.40;99.90;;;;;;5055932;28;20208;-96
2022/11/28 04:02:51;;;;;;;2.83;1.30;;;4.30;99.90;;;;;;5064968;28;20204;-96
2022/11/28 04:05:31;;;;;;;2.20;1.33;;;4.40;99.90;;;;;;5062909;28;20218;-94
2022/11/28 04:08:12;;;;;;;4.37;1.33;;;4.40;99.90;;;;;;5055831;28;20203;-96
2022/11/28 04:10:51;;;;;;;4.47;1.67;;;4.40;99.90;;;;;;5054344;28;20216;-94
2022/11/28 04:13:27;;;;;;;7.23;1.80;;;4.40;99.90;;;;;;5060684;28;20206;-95
2022/11/28 04:16:03;;;;;;;3.90;1.53;;;4.40;99.90;;;;;;5047747;28;20697;-95
2022/11/28 04:18:42;;;;;;;5.30;1.60;;;4.40;99.90;;;;;;5054645;28;20207;-95
2022/11/28 04:21:20;;;;;;;6.80;1.60;;;4.40;99.90;;;;;;5037913;28;20288;-94
2022/11/28 04:23:54;;;;;;;8.90;2.10;;;4.40;99.90;;;;;;5037239;28;20294;-93
2022/11/28 04:26:32;;;;;;;11.10;2.17;;;4.40;99.90;;;;;;5054566;28;20203;-94
2022/11/28 04:29:09;;;;;;;7.40;1.73;;;4.40;99.90;;;;;;5046315;28;20659;-94
2022/11/28 04:31:43;;;;;;;6.40;2.33;;;4.40;99.90;;;;;;5048281;28;20295;-95
2022/11/28 04:34:18;;;;;;;4.33;1.50;;;4.40;99.90;;;;;;5052913;28;20216;-94
2022/11/28 04:36:52;;;;;;;3.73;1.53;;;4.40;99.90;;;;;;5043629;28;20342;-94
2022/11/28 04:39:28;;;;;;;6.83;1.70;;;4.40;99.90;;;;;;5051369;28;20241;-94
2022/11/28 04:42:08;;;;;;;6.87;1.90;;;4.40;99.90;;;;;;5054368;28;20353;-96
2022/11/28 04:44:42;;;;;;;4.50;1.50;;;4.40;99.90;;;;;;5054168;28;20219;-93
2022/11/28 04:47:17;;;;;;;5.40;1.23;;;4.40;99.90;;;;;;5061792;28;20210;-96
2022/11/28 04:49:50;;;;;;;4.53;1.40;;;4.30;99.90;;;;;;5054442;28;20571;-94
2022/11/28 04:52:26;;;;;;;3.73;1.40;;;4.40;99.90;;;;;;5053897;28;20223;-96
2022/11/28 04:55:03;;;;;;;7.00;1.90;;;4.30;99.90;;;;;;5069404;28;20682;-96
2022/11/28 04:57:41;;;;;;;2.83;1.37;;;4.40;99.90;;;;;;5041619;28;20243;-95
2022/11/28 05:00:15;;;;;;;4.67;1.27;;;4.30;99.90;;;;;;5054980;28;20282;-95
2022/11/28 05:02:50;;;;;;;2.87;1.40;;;4.30;99.90;;;;;;5052868;28;20207;-94
2022/11/28 05:05:27;;;;;;;4.30;1.60;;;4.40;99.90;;;;;;5055527;28;20207;-94
2022/11/28 05:08:00;;;;;;;4.33;1.77;;;4.30;99.90;;;;;;5070624;28;20207;-94
2022/11/28 05:10:33;;;;;;;4.00;1.37;;;4.30;99.90;;;;;;5075450;28;20218;-94
2022/11/28 05:13:09;;;;;;;4.63;1.40;;;4.30;99.90;;;;;;5068731;28;20208;-94
2022/11/28 05:15:42;;;;;;;3.93;1.20;;;4.30;99.90;;;;;;5054814;28;20303;-95
2022/11/28 05:18:17;;;;;;;4.30;1.37;;;4.40;99.90;;;;;;5055613;28;20658;-91
2022/11/28 05:20:48;;;;;;;2.23;1.33;;;4.30;99.90;;;;;;5050765;28;20223;-96
2022/11/28 05:23:22;;;;;;;6.53;1.67;;;4.30;99.90;;;;;;5057129;28;20204;-94
2022/11/28 05:25:54;;;;;;;3.03;1.50;;;4.30;99.90;;;;;;5061797;28;20247;-93
2022/11/28 05:28:28;;;;;;;4.53;1.70;;;4.30;99.90;;;;;;5063913;28;20235;-94
2022/11/28 05:31:07;;;;;;;7.03;2.33;;;4.30;99.90;;;;;;5071377;28;20195;-95
2022/11/28 05:33:40;;;;;;;4.00;1.53;;;4.30;99.90;;;;;;5067803;28;20235;-95
2022/11/28 05:36:14;;;;;;;6.70;1.50;;;4.20;99.90;;;;;;5065830;28;20240;-95
2022/11/28 05:38:46;;;;;;;3.13;1.20;;;4.20;99.90;;;;;;5083916;28;20222;-94
2022/11/28 05:41:24;;;;;;;3.20;1.33;;;4.30;99.90;;;;;;5074431;28;20201;-94
2022/11/28 05:43:59;;;;;;;3.00;1.40;;;4.30;99.90;;;;;;5063326;28;20208;-94
2022/11/28 05:46:31;;;;;;;4.27;1.40;;;4.30;99.90;;;;;;5068469;28;20599;-95
2022/11/28 05:49:02;;;;;;;6.23;1.70;;;4.20;99.90;;;;;;5059213;28;20203;-94
2022/11/28 05:51:34;;;;;;;3.93;1.20;;;4.30;99.90;;;;;;5048357;28;20683;-94
2022/11/28 05:54:05;;;;;;;5.13;2.03;;;4.30;99.90;;;;;;5053921;28;20304;-94
2022/11/28 05:56:36;;;;;;;4.97;1.50;;;4.30;99.90;;;;;;5056456;28;20255;-94
2022/11/28 05:59:14;;;;;;;5.23;1.90;;;4.20;99.90;;;;;;5036487;28;20580;-93
2022/11/28 06:01:46;;;;;;;5.80;1.30;;;4.30;99.90;;;;;;5051024;28;20706;-96
2022/11/28 06:04:18;;;;;;;6.53;1.70;;;4.20;99.90;;;;;;5054964;28;20223;-94
2022/11/28 06:06:52;;;;;;;4.77;1.40;;;4.20;99.90;;;;;;5048953;28;20287;-95
2022/11/28 06:09:24;;;;;;;4.00;1.40;;;4.20;99.90;;;;;;5061141;28;20223;-94
2022/11/28 06:11:55;;;;;;;3.63;1.97;;;4.10;99.90;;;;;;5055649;28;20287;-94
2022/11/28 06:14:30;;;;;;;5.40;1.50;;;4.20;99.90;;;;;;5052760;28;20196;-94
2022/11/28 06:17:01;;;;;;;5.77;1.50;;;4.20;99.90;;;;;;5048706;28;20281;-94
2022/11/28 06:19:33;;;;;;;3.73;1.40;;;4.20;99.90;;;;;;5048335;28;20623;-94
2022/11/28 06:22:05;;;;;;;4.37;1.20;;;4.20;99.90;;;;;;5042967;28;20208;-94
2022/11/28 06:24:37;;;;;;;4.80;1.60;;;4.20;99.90;;;;;;5059949;28;20666;-94
2022/11/28 06:27:08;;;;;;;3.07;1.37;;;4.20;99.90;;;;;;5053956;28;20303;-93
2022/11/28 06:29:42;;;;;;;2.83;1.30;;;4.20;99.90;;;;;;5053517;28;20234;-93
2022/11/28 06:32:14;;;;;;;3.90;1.47;;;4.20;99.90;;;;;;5047937;28;20665;-93
2022/11/28 06:34:51;;;;;;;6.40;1.40;;;4.20;99.90;;;;;;5053639;28;20648;-93
2022/11/28 06:37:22;;;;;;;5.83;1.77;;;4.20;99.90;;;;;;5042430;28;20315;-93
2022/11/28 06:39:53;;;;;;;5.60;1.53;;;4.20;99.90;;;;;;5050773;28;20303;-93
2022/11/28 06:42:26;;;;;;;3.73;1.37;;;4.10;99.90;;;;;;5051857;28;20387;-94
2022/11/28 06:45:01;;;;;;;3.37;1.27;;;4.10;99.90;;;;;;5049577;28;20298;-93
2022/11/28 06:47:34;;;;;;;4.70;1.63;;;4.00;99.90;;;;;;5047316;28;20247;-95
2022/11/28 06:50:09;;;;;;;2.20;1.20;;;4.10;99.90;;;;;;5044564;28;20212;-95
2022/11/28 06:52:45;;;;;;;3.17;1.40;;;4.10;99.90;;;;;;5046372;28;20239;-94
2022/11/28 06:55:17;;;;;;;6.20;1.90;;;4.10;99.90;;;;;;5044141;28;20201;-95
2022/11/28 06:57:49;;;;;;;4.23;1.67;;;4.10;99.90;;;;;;5051124;28;20229;-93
2022/11/28 07:00:25;;;;;;;3.57;1.33;;;4.10;99.90;;;;;;5056512;28;20204;-94
2022/11/28 07:02:56;;;;;;;6.33;1.87;;;4.10;99.90;;;;;;5047122;28;20210;-94
2022/11/28 07:05:29;;;;;;;2.00;1.10;;;4.10;99.90;;;;;;5060148;28;20303;-94
2022/11/28 07:08:02;;;;;;;4.33;1.60;;;4.00;99.90;;;;;;5064908;28;20216;-94
2022/11/28 07:10:34;;;;;;;7.30;1.37;;;4.00;99.90;;;;;;5053356;28;20300;-94
2022/11/28 07:13:06;;;;;;;3.10;1.40;;;4.10;99.90;;;;;;5052848;28;20904;-94
2022/11/28 07:15:40;;;;;;;5.20;1.40;;;4.10;99.90;;;;;;5059269;28;20227;-94
2022/11/28 07:18:14;;;;;;;1.87;1.10;;;4.10;99.90;;;;;;5056811;28;20266;-95
2022/11/28 07:20:46;;;;;;;3.77;1.23;;;4.10;99.90;;;;;;5072378;28;20273;-95
2022/11/28 07:23:18;;;;;;;3.50;1.30;;;3.90;99.90;;;;;;5072763;28;20277;-94
2022/11/28 07:25:50;;;;;;;6.40;1.20;;;4.00;99.90;;;;;;5061960;28;20207;-94
2022/11/28 07:28:22;;;;;;;5.13;1.43;;;4.00;99.90;;;;;;5052027;28;20204;-94
2022/11/28 07:31:04;;;;;;;4.47;1.47;;;4.00;99.90;;;;;;5056536;28;20199;-93
2022/11/28 07:33:38;;;;;;;5.83;1.30;;;4.00;99.90;;;;;;5051035;28;20618;-94
2022/11/28 07:36:14;;;;;;;6.20;1.53;;;4.00;99.90;;;;;;5060475;28;20210;-94
2022/11/28 07:38:47;;;;;;;2.23;1.10;;;4.00;99.90;;;;;;5058735;28;20231;-93
2022/11/28 07:41:20;;;;;;;6.20;1.87;;;4.00;99.90;;;;;;5059892;28;20212;-92
2022/11/28 07:43:57;;;;;;;6.70;1.57;;;4.00;99.90;;;;;;5055217;28;20284;-93
2022/11/28 07:46:34;;;;;;;4.43;1.30;;;4.00;99.90;;;;;;5049607;28;20209;-94
2022/11/28 07:49:05;;;;;;;3.63;1.10;;;4.10;99.90;;;;;;5042362;28;20239;-93
2022/11/28 07:51:38;;;;;;;4.40;1.40;;;4.10;99.90;;;;;;5045454;28;20212;-92
2022/11/28 07:54:11;;;;;;;4.53;1.40;;;4.00;99.90;;;;;;5064699;28;20356;-93
2022/11/28 07:56:44;;;;;;;1.80;1.30;;;4.10;99.90;;;;;;5065557;28;20208;-94
2022/11/28 07:59:36;;;;;;;5.40;1.27;;;4.00;99.90;;;;;;5064610;28;20209;-93
2022/11/28 08:02:11;;;;;;;3.70;1.53;;;4.10;99.90;;;;;;5060216;28;20208;-92
2022/11/28 08:04:43;;;;;;;3.00;1.30;;;4.10;99.90;;;;;;5064882;28;20211;-94
2022/11/28 08:07:22;;;;;;;2.70;1.17;;;4.10;99.90;;;;;;5079401;28;20200;-94
2022/11/28 08:09:55;;;;;;;3.90;1.40;;;4.10;99.90;;;;;;5073900;28;20695;-94
2022/11/28 08:12:29;;;;;;;1.90;1.27;;;4.00;99.90;;;;;;5067364;28;20201;-94
2022/11/28 08:15:00;;;;;;;5.20;1.83;;;4.10;99.90;;;;;;5053393;28;20222;-93
2022/11/28 08:17:37;;;;;;;4.23;1.07;;;4.10;99.90;;;;;;5051788;28;20236;-95
2022/11/28 08:20:11;;;;;;;6.60;1.60;;;4.00;99.90;;;;;;5052913;28;20287;-93
2022/11/28 08:22:42;;;;;;;3.37;1.30;;;4.10;99.90;;;;;;5065668;28;20199;-95
2022/11/28 08:25:15;;;;;;;9.33;1.60;;;4.00;99.90;;;;;;5071138;28;20237;-94
2022/11/28 08:27:47;;;;;;;3.20;1.07;;;4.00;99.90;;;;;;5059743;28;20220;-93
2022/11/28 08:30:22;;;;;;;3.50;1.20;;;4.10;99.90;;;;;;5032307;28;20200;-94
2022/11/28 08:32:56;;;;;;;4.60;1.60;;;4.10;99.90;;;;;;5042004;28;20216;-94
2022/11/28 08:35:28;;;;;;;4.50;1.37;;;4.10;99.90;;;;;;5072431;28;20200;-94
2022/11/28 08:38:00;;;;;;;5.00;1.20;;;4.10;99.90;;;;;;5052983;28;20236;-94
2022/11/28 08:40:33;;;;;;;6.33;1.33;;;4.10;99.90;;;;;;5072597;28;20909;-92
2022/11/28 08:43:06;;;;;;;3.53;1.10;;;4.10;99.90;;;;;;5052035;28;20222;-93
2022/11/28 08:45:39;;;;;;;3.67;1.30;;;4.10;99.90;;;;;;5040935;28;20200;-93
2022/11/28 08:48:14;;;;;;;8.13;1.93;;;4.10;99.90;;;;;;5054490;28;20234;-92
2022/11/28 08:50:48;;;;;;;2.90;1.37;;;4.10;99.90;;;;;;5054405;28;20682;-95
